createdAt,value
2024-04-18T00:00:40.919Z,94994.22
2024-04-18T00:01:43.152Z,94988.78
2024-04-18T00:02:45.347Z,94997.44
2024-04-18T00:04:09.116Z,94991.16
2024-04-18T00:05:14.608Z,94991.63
2024-04-18T00:06:16.793Z,94997.09
2024-04-18T00:07:22.099Z,94998.28
2024-04-18T00:08:44.277Z,94997.09
2024-04-18T00:10:01.836Z,94987.34
2024-04-18T00:11:14.389Z,94992.06
2024-04-18T00:12:17.244Z,94995.22
2024-04-18T00:13:22.976Z,94998.72
2024-04-18T00:14:40.095Z,94989.75
2024-04-18T00:15:56.789Z,94997.94
2024-04-18T00:17:12.994Z,94989.75
2024-04-18T00:18:15.403Z,94990.97
2024-04-18T00:19:18.890Z,94996.44
2024-04-18T00:20:35.879Z,94995.22
2024-04-18T00:21:53.199Z,94984.28
2024-04-18T00:23:03.517Z,94993.69
2024-04-18T00:24:09.131Z,94992.94
2024-04-18T00:25:26.431Z,94999.91
2024-04-18T00:26:28.576Z,94987.47
2024-04-18T00:27:39.456Z,94997.63
2024-04-18T00:28:46.332Z,95000.81
2024-04-18T00:29:54.326Z,94982.09
2024-04-18T00:30:56.498Z,94993.03
2024-04-18T00:32:36.111Z,94986.81
2024-04-18T00:37:44.911Z,94986.03
2024-04-18T00:39:45.372Z,94979.03
2024-04-18T00:45:50.259Z,94984.94
2024-04-18T00:51:57.598Z,94982.97
2024-04-18T00:53:00.928Z,94976.31
2024-04-18T00:54:06.555Z,94974.78
2024-04-18T00:55:10.935Z,94980.25
2024-04-18T00:56:16.044Z,94981.00
2024-04-18T00:57:25.262Z,94983.75
2024-04-18T00:58:30.267Z,94977.53
2024-04-18T00:59:53.191Z,94976.31
2024-04-18T01:00:58.755Z,94984.50
2024-04-18T01:02:27.498Z,94977.06
2024-04-18T01:03:50.786Z,94984.50
2024-04-18T01:05:15.993Z,94983.47
2024-04-18T01:06:18.216Z,94988.63
2024-04-18T01:07:39.111Z,94996.47
2024-04-18T01:09:02.923Z,94987.06
2024-04-18T01:10:06.278Z,94994.16
2024-04-18T01:11:08.353Z,94992.19
2024-04-18T01:12:10.480Z,94991.44
2024-04-18T01:13:15.407Z,94987.94
2024-04-18T01:14:37.959Z,94985.22
2024-04-18T01:15:40.099Z,94991.88
2024-04-18T01:16:47.511Z,94987.88
2024-04-18T01:17:49.775Z,94990.94
2024-04-18T01:18:52.145Z,94985.38
2024-04-18T01:19:59.045Z,94997.81
2024-04-18T01:21:01.146Z,94996.63
2024-04-18T01:22:05.560Z,94993.91
2024-04-18T01:23:08.296Z,94993.91
2024-04-18T01:24:22.605Z,95000.88
2024-04-18T01:25:26.925Z,94999.38
2024-04-18T01:26:31.657Z,94998.63
2024-04-18T01:27:33.763Z,95004.84
2024-04-18T01:28:38.452Z,95000.56
2024-04-18T01:29:40.570Z,94997.81
2024-04-18T01:30:44.993Z,94997.81
2024-04-18T01:31:49.801Z,95004.50
2024-04-18T01:32:51.922Z,95003.28
2024-04-18T01:33:59.078Z,95007.25
2024-04-18T01:35:04.038Z,95008.00
2024-04-18T01:36:23.413Z,95001.78
2024-04-18T01:37:28.721Z,94997.50
2024-04-18T01:38:48.886Z,95004.16
2024-04-18T01:40:08.525Z,95004.59
2024-04-18T01:41:10.651Z,95001.53
2024-04-18T01:42:36.052Z,95007.00
2024-04-18T01:44:01.979Z,94992.56
2024-04-18T01:45:23.232Z,94994.88
2024-04-18T01:46:45.435Z,94994.88
2024-04-18T01:48:10.399Z,94993.34
2024-04-18T01:49:31.250Z,94992.16
2024-04-18T01:50:33.354Z,94998.81
2024-04-18T01:51:39.804Z,94991.41
2024-04-18T01:53:02.035Z,94994.47
2024-04-18T01:54:16.288Z,94992.91
2024-04-18T01:55:33.322Z,94994.88
2024-04-18T01:56:55.419Z,94997.19
2024-04-18T01:58:00.136Z,95001.88
2024-04-18T01:59:10.948Z,94999.59
2024-04-18T02:00:15.349Z,95001.88
2024-04-18T02:01:22.708Z,95003.06
2024-04-18T02:02:27.957Z,95000.34
2024-04-18T02:03:45.223Z,94999.59
2024-04-18T02:04:49.942Z,95005.81
2024-04-18T02:06:16.846Z,95001.09
2024-04-18T02:07:24.956Z,94998.38
2024-04-18T02:08:38.966Z,94999.13
2024-04-18T02:09:55.724Z,95007.31
2024-04-18T02:11:01.414Z,95004.16
2024-04-18T02:12:18.991Z,95008.13
2024-04-18T02:13:45.297Z,95008.13
2024-04-18T02:14:47.510Z,95005.38
2024-04-18T02:15:49.672Z,95009.63
2024-04-18T02:16:54.688Z,95002.66
2024-04-18T02:18:01.739Z,95008.13
2024-04-18T02:19:16.982Z,95006.56
2024-04-18T02:20:57.026Z,95012.03
2024-04-18T02:21:59.190Z,95015.53
2024-04-18T02:23:09.613Z,95014.00
2024-04-18T02:24:26.503Z,95006.56
2024-04-18T02:25:31.217Z,95016.72
2024-04-18T02:27:29.519Z,95011.69
2024-04-18T02:29:14.881Z,95015.19
2024-04-18T02:30:57.301Z,95010.94
2024-04-18T02:32:19.684Z,95013.66
2024-04-18T02:33:22.027Z,95016.81
2024-04-18T02:34:28.750Z,95016.81
2024-04-18T02:35:31.077Z,95012.91
2024-04-18T02:36:35.983Z,95010.19
2024-04-18T02:37:48.009Z,95013.66
2024-04-18T02:38:52.690Z,95015.66
2024-04-18T02:39:56.909Z,95015.97
2024-04-18T02:41:03.089Z,95010.50
2024-04-18T02:42:23.663Z,95008.97
2024-04-18T02:43:37.401Z,95008.97
2024-04-18T02:44:42.145Z,95008.97
2024-04-18T02:45:46.391Z,95010.94
2024-04-18T02:47:06.815Z,95013.66
2024-04-18T02:48:31.965Z,95017.63
2024-04-18T02:49:54.201Z,95011.38
2024-04-18T02:50:58.334Z,95007.88
2024-04-18T02:52:00.505Z,95011.38
2024-04-18T02:53:23.650Z,95014.09
2024-04-18T02:54:43.916Z,95014.88
2024-04-18T02:55:46.142Z,95004.38
2024-04-18T02:57:08.185Z,95011.38
2024-04-18T02:58:13.178Z,95016.81
2024-04-18T02:59:17.327Z,95010.59
2024-04-18T03:00:27.626Z,95007.44
2024-04-18T03:02:05.027Z,95018.03
2024-04-18T03:03:09.480Z,95020.78
2024-04-18T03:04:32.933Z,95011.81
2024-04-18T03:05:37.906Z,95015.31
2024-04-18T03:06:40.175Z,95016.06
2024-04-18T03:07:48.458Z,95015.31
2024-04-18T03:08:52.735Z,95017.28
2024-04-18T03:09:57.499Z,95018.03
2024-04-18T03:11:02.839Z,95018.47
2024-04-18T03:12:11.090Z,95019.22
2024-04-18T03:13:18.674Z,95017.69
2024-04-18T03:14:28.785Z,95018.47
2024-04-18T03:15:51.629Z,95016.19
2024-04-18T03:16:53.778Z,95014.63
2024-04-18T03:18:00.107Z,95013.44
2024-04-18T03:19:14.239Z,95017.69
2024-04-18T03:20:31.850Z,95010.72
2024-04-18T03:21:45.518Z,95016.94
2024-04-18T03:22:53.352Z,95016.19
2024-04-18T03:23:55.475Z,95016.59
2024-04-18T03:25:18.769Z,95017.03
2024-04-18T03:26:39.339Z,95024.03
2024-04-18T03:27:41.735Z,95016.59
2024-04-18T03:28:43.953Z,95024.03
2024-04-18T03:29:48.883Z,95019.78
2024-04-18T03:31:11.385Z,95022.50
2024-04-18T03:32:16.365Z,95027.97
2024-04-18T03:33:21.558Z,95018.59
2024-04-18T03:34:26.332Z,95026.44
2024-04-18T03:35:28.415Z,95020.97
2024-04-18T03:36:53.143Z,95020.97
2024-04-18T03:38:06.665Z,95027.97
2024-04-18T03:39:10.475Z,95021.75
2024-04-18T03:40:15.229Z,95015.53
2024-04-18T03:41:37.193Z,95023.72
2024-04-18T03:42:53.763Z,95022.94
2024-04-18T03:43:59.950Z,95022.94
2024-04-18T03:45:04.933Z,95018.25
2024-04-18T03:46:07.037Z,95026.44
2024-04-18T03:47:11.778Z,95029.19
2024-04-18T03:48:16.848Z,95034.63
2024-04-18T03:49:21.447Z,95026.44
2024-04-18T03:50:26.443Z,95027.63
2024-04-18T03:51:48.708Z,95027.63
2024-04-18T03:53:09.149Z,95029.19
2024-04-18T03:54:16.743Z,95031.91
2024-04-18T03:55:30.305Z,95026.09
2024-04-18T03:56:32.425Z,95031.16
2024-04-18T03:57:34.655Z,95028.84
2024-04-18T03:58:39.460Z,95027.63
2024-04-18T03:59:41.547Z,95035.06
2024-04-18T04:00:47.971Z,95030.81
2024-04-18T04:01:50.118Z,95030.03
2024-04-18T04:06:25.196Z,95033.53
2024-04-18T04:08:07.552Z,95039.75
2024-04-18T04:11:14.138Z,95040.94
2024-04-18T04:12:16.349Z,95044.47
2024-04-18T04:13:43.317Z,95040.94
2024-04-18T04:14:54.647Z,95039.44
2024-04-18T04:15:57.790Z,95039.44
2024-04-18T04:17:14.943Z,95051.56
2024-04-18T04:18:27.501Z,95050.34
2024-04-18T04:19:51.982Z,95051.56
2024-04-18T04:20:54.374Z,95047.63
2024-04-18T04:21:59.999Z,95046.84
2024-04-18T04:23:02.279Z,95052.31
2024-04-18T04:24:04.918Z,95051.56
2024-04-18T04:25:29.947Z,95052.31
2024-04-18T04:26:34.595Z,95057.78
2024-04-18T04:27:36.720Z,95054.28
2024-04-18T04:28:38.917Z,95060.50
2024-04-18T04:29:44.374Z,95054.28
2024-04-18T04:30:48.745Z,95053.50
2024-04-18T04:31:51.036Z,95060.50
2024-04-18T04:32:55.957Z,95059.75
2024-04-18T04:34:11.257Z,95064.44
2024-04-18T04:35:13.671Z,95062.47
2024-04-18T04:36:22.125Z,95062.47
2024-04-18T04:37:25.412Z,95065.22
2024-04-18T04:38:27.611Z,95069.13
2024-04-18T04:39:29.886Z,95070.69
2024-04-18T04:40:54.908Z,95067.16
2024-04-18T04:42:00.429Z,95077.31
2024-04-18T04:43:02.819Z,95071.88
2024-04-18T04:44:07.616Z,95072.63
2024-04-18T04:45:24.939Z,95076.56
2024-04-18T04:46:42.184Z,95077.31
2024-04-18T04:48:11.875Z,95076.56
2024-04-18T04:49:35.552Z,95085.19
2024-04-18T04:50:41.950Z,95085.19
2024-04-18T04:51:52.322Z,95083.66
2024-04-18T04:53:16.657Z,95084.41
2024-04-18T04:54:34.566Z,95085.19
2024-04-18T04:55:39.459Z,95088.34
2024-04-18T04:56:41.602Z,95097.31
2024-04-18T04:57:55.595Z,95094.59
2024-04-18T04:59:02.344Z,95089.53
2024-04-18T05:00:24.858Z,95093.03
2024-04-18T05:01:32.780Z,95098.50
2024-04-18T05:02:39.991Z,95105.94
2024-04-18T05:03:54.589Z,95092.28
2024-04-18T05:05:04.678Z,95100.88
2024-04-18T05:06:09.922Z,95099.69
2024-04-18T05:07:12.052Z,95101.69
2024-04-18T05:08:14.161Z,95109.06
2024-04-18T05:09:20.687Z,95102.09
2024-04-18T05:10:25.004Z,95110.28
2024-04-18T05:11:27.184Z,95107.56
2024-04-18T05:12:31.963Z,95106.03
2024-04-18T05:13:34.147Z,95106.03
2024-04-18T05:14:56.615Z,95114.22
2024-04-18T05:16:32.560Z,95107.97
2024-04-18T05:17:46.894Z,95113.44
2024-04-18T05:18:49.148Z,95113.44
2024-04-18T05:19:53.958Z,95106.47
2024-04-18T05:21:13.934Z,95112.69
2024-04-18T05:22:36.853Z,95109.59
2024-04-18T05:23:41.603Z,95109.59
2024-04-18T05:24:43.711Z,95114.31
2024-04-18T05:25:45.851Z,95115.06
2024-04-18T05:26:54.171Z,95122.09
2024-04-18T05:28:11.750Z,95115.06
2024-04-18T05:29:32.571Z,95114.31
2024-04-18T05:30:53.470Z,95119.00
2024-04-18T05:31:55.830Z,95119.00
2024-04-18T05:33:00.175Z,95119.00
2024-04-18T05:34:05.132Z,95120.53
2024-04-18T05:35:07.530Z,95126.00
2024-04-18T05:36:09.804Z,95117.47
2024-04-18T05:37:17.193Z,95127.19
2024-04-18T05:38:21.451Z,95122.91
2024-04-18T05:39:26.199Z,95131.13
2024-04-18T05:42:29.557Z,95133.84
2024-04-18T05:50:56.583Z,95144.09
2024-04-18T05:51:58.817Z,95149.56
2024-04-18T05:53:11.961Z,95150.34
2024-04-18T05:54:33.198Z,95151.97
2024-04-18T05:55:43.870Z,95147.69
2024-04-18T05:56:46.218Z,95148.13
2024-04-18T05:57:51.128Z,95152.78
2024-04-18T05:59:33.212Z,95152.78
2024-04-18T06:00:37.707Z,95157.50
2024-04-18T06:01:42.607Z,95157.91
2024-04-18T06:02:44.753Z,95155.19
2024-04-18T06:03:49.596Z,95156.41
2024-04-18T06:04:51.910Z,95158.78
2024-04-18T06:06:17.782Z,95161.50
2024-04-18T06:07:22.827Z,95153.75
2024-04-18T06:08:28.655Z,95159.19
2024-04-18T06:09:33.366Z,95163.13
2024-04-18T06:10:38.475Z,95165.44
2024-04-18T06:12:00.381Z,95163.47
2024-04-18T06:13:02.573Z,95161.94
2024-04-18T06:14:05.993Z,95163.91
2024-04-18T06:15:11.003Z,95160.00
2024-04-18T06:16:13.393Z,95166.63
2024-04-18T06:17:29.194Z,95165.09
2024-04-18T06:18:31.501Z,95166.28
2024-04-18T06:19:36.287Z,95174.47
2024-04-18T06:21:01.635Z,95174.94
2024-04-18T06:22:06.495Z,95173.38
2024-04-18T06:23:10.994Z,95164.41
2024-04-18T06:24:18.482Z,95176.78
2024-04-18T06:25:20.557Z,95167.72
2024-04-18T06:26:25.408Z,95173.97
2024-04-18T06:27:27.700Z,95173.19
2024-04-18T06:28:32.058Z,95177.13
2024-04-18T06:29:36.889Z,95173.63
2024-04-18T06:30:42.241Z,95179.50
2024-04-18T06:31:49.815Z,95173.31
2024-04-18T06:32:51.978Z,95173.31
2024-04-18T06:33:56.338Z,95181.16
2024-04-18T06:35:01.173Z,95173.38
2024-04-18T06:36:04.002Z,95179.59
2024-04-18T06:37:10.636Z,95177.66
2024-04-18T06:38:12.916Z,95179.59
2024-04-18T06:39:22.565Z,95182.31
2024-04-18T06:40:25.974Z,95193.25
2024-04-18T06:41:30.781Z,95194.03
2024-04-18T06:42:33.450Z,95187.03
2024-04-18T06:43:38.222Z,95186.25
2024-04-18T06:44:42.388Z,95188.22
2024-04-18T06:45:47.687Z,95193.69
2024-04-18T06:46:57.065Z,95191.38
2024-04-18T06:48:07.669Z,95184.41
2024-04-18T06:49:10.015Z,95193.00
2024-04-18T06:50:16.956Z,95189.50
2024-04-18T06:51:19.123Z,95196.94
2024-04-18T06:52:23.892Z,95196.16
2024-04-18T06:53:26.031Z,95196.16
2024-04-18T06:54:33.466Z,95196.16
2024-04-18T06:55:37.710Z,95197.69
2024-04-18T06:56:42.425Z,95203.91
2024-04-18T06:57:44.804Z,95200.78
2024-04-18T06:59:05.949Z,95194.88
2024-04-18T07:00:20.216Z,95202.63
2024-04-18T07:01:24.623Z,95202.97
2024-04-18T07:02:35.660Z,95202.56
2024-04-18T07:03:57.097Z,95199.03
2024-04-18T07:05:14.167Z,95195.13
2024-04-18T07:06:23.155Z,95202.13
2024-04-18T07:07:42.126Z,95203.66
2024-04-18T07:09:04.662Z,95205.19
2024-04-18T07:10:24.389Z,95201.28
2024-04-18T07:11:30.841Z,95198.88
2024-04-18T07:12:35.822Z,95211.34
2024-04-18T07:13:55.434Z,95210.13
2024-04-18T07:15:10.386Z,95203.50
2024-04-18T07:16:18.736Z,95205.00
2024-04-18T07:17:32.701Z,95206.56
2024-04-18T07:18:41.012Z,95203.84
2024-04-18T07:19:47.916Z,95213.53
2024-04-18T07:21:09.243Z,95212.38
2024-04-18T07:22:11.410Z,95208.44
2024-04-18T07:23:31.071Z,95211.50
2024-04-18T07:24:43.675Z,95214.22
2024-04-18T07:25:50.570Z,95207.16
2024-04-18T07:27:07.395Z,95217.66
2024-04-18T07:28:28.505Z,95212.84
2024-04-18T07:29:36.395Z,95212.44
2024-04-18T07:30:38.579Z,95213.53
2024-04-18T07:31:45.499Z,95217.38
2024-04-18T07:32:47.835Z,95220.69
2024-04-18T07:33:52.743Z,95226.06
2024-04-18T07:34:54.976Z,95216.22
2024-04-18T07:36:22.889Z,95218.13
2024-04-18T07:37:30.544Z,95216.91
2024-04-18T07:38:37.199Z,95223.59
2024-04-18T07:39:40.441Z,95225.09
2024-04-18T07:40:42.586Z,95222.78
2024-04-18T07:41:50.316Z,95221.69
2024-04-18T07:42:55.264Z,95223.34
2024-04-18T07:44:00.068Z,95235.91
2024-04-18T07:45:02.299Z,95239.84
2024-04-18T07:46:05.399Z,95241.13
2024-04-18T07:47:10.678Z,95243.06
2024-04-18T07:48:14.991Z,95235.38
2024-04-18T07:49:19.998Z,95235.38
2024-04-18T07:50:22.356Z,95239.31
2024-04-18T07:51:24.605Z,95241.59
2024-04-18T07:52:29.718Z,95247.50
2024-04-18T07:53:34.215Z,95244.78
2024-04-18T07:54:39.615Z,95247.50
2024-04-18T07:55:42.561Z,95251.00
2024-04-18T07:56:50.288Z,95262.69
2024-04-18T07:57:53.677Z,95255.72
2024-04-18T07:58:58.820Z,95248.28
2024-04-18T08:00:06.092Z,95252.53
2024-04-18T08:01:14.992Z,95257.22
2024-04-18T08:02:22.502Z,95249.03
2024-04-18T08:03:27.799Z,95249.03
2024-04-18T08:04:52.710Z,95254.09
2024-04-18T08:06:01.670Z,95256.38
2024-04-18T08:07:11.486Z,95259.09
2024-04-18T08:08:17.815Z,95257.91
2024-04-18T08:09:24.118Z,95263.38
2024-04-18T08:10:41.254Z,95264.13
2024-04-18T08:12:22.893Z,95267.22
2024-04-18T08:13:25.245Z,95265.69
2024-04-18T08:14:35.487Z,95266.47
2024-04-18T08:16:50.505Z,95273.44
2024-04-18T08:17:52.974Z,95277.72
2024-04-18T08:18:57.742Z,95273.78
2024-04-18T08:19:59.851Z,95277.72
2024-04-18T08:21:07.171Z,95276.50
2024-04-18T08:22:09.329Z,95281.22
2024-04-18T08:23:20.656Z,95276.50
2024-04-18T08:24:28.954Z,95278.81
2024-04-18T08:25:51.943Z,95281.13
2024-04-18T08:26:59.070Z,95286.56
2024-04-18T08:28:05.079Z,95287.38
2024-04-18T08:29:07.267Z,95285.41
2024-04-18T08:30:14.385Z,95287.38
2024-04-18T08:31:16.593Z,95284.19
2024-04-18T08:32:23.512Z,95280.28
2024-04-18T08:33:25.637Z,95291.19
2024-04-18T08:34:32.380Z,95288.47
2024-04-18T08:35:35.022Z,95283.44
2024-04-18T08:36:39.788Z,95285.75
2024-04-18T08:37:43.959Z,95284.19
2024-04-18T08:38:48.646Z,95290.44
2024-04-18T08:39:50.716Z,95286.91
2024-04-18T08:40:56.175Z,95288.13
2024-04-18T08:42:02.055Z,95287.38
2024-04-18T08:43:09.002Z,95287.38
2024-04-18T08:44:12.114Z,95290.84
2024-04-18T08:45:14.647Z,95298.28
2024-04-18T08:46:20.302Z,95291.63
2024-04-18T08:47:24.616Z,95288.13
2024-04-18T08:48:35.148Z,95290.84
2024-04-18T08:49:40.340Z,95290.44
2024-04-18T08:50:45.607Z,95291.19
2024-04-18T08:51:49.277Z,95290.00
2024-04-18T08:52:55.745Z,95294.28
2024-04-18T08:54:00.064Z,95295.81
2024-04-18T08:55:02.439Z,95297.34
2024-04-18T08:56:11.646Z,95291.09
2024-04-18T08:57:20.244Z,95299.63
2024-04-18T08:58:25.551Z,95293.00
2024-04-18T08:59:29.930Z,95287.09
2024-04-18T09:01:09.555Z,95300.75
2024-04-18T09:05:10.080Z,95294.19
2024-04-18T09:07:08.013Z,95302.38
2024-04-18T09:09:19.774Z,95311.00
2024-04-18T09:10:24.882Z,95309.88
2024-04-18T09:11:31.368Z,95316.13
2024-04-18T09:12:36.812Z,95305.19
2024-04-18T09:13:39.533Z,95301.25
2024-04-18T09:14:44.364Z,95314.50
2024-04-18T09:15:48.909Z,95307.84
2024-04-18T09:16:53.637Z,95306.66
2024-04-18T09:18:02.326Z,95307.00
2024-04-18T09:19:08.692Z,95306.91
2024-04-18T09:20:11.539Z,95314.22
2024-04-18T09:21:18.397Z,95310.31
2024-04-18T09:22:21.136Z,95314.16
2024-04-18T09:23:26.005Z,95313.41
2024-04-18T09:24:28.372Z,95314.50
2024-04-18T09:25:34.718Z,95312.53
2024-04-18T09:26:43.315Z,95318.00
2024-04-18T09:27:49.026Z,95323.81
2024-04-18T09:28:53.931Z,95323.47
2024-04-18T09:29:56.159Z,95315.69
2024-04-18T09:31:00.418Z,95309.44
2024-04-18T09:32:12.480Z,95315.69
2024-04-18T09:33:14.957Z,95317.31
2024-04-18T09:34:17.972Z,95317.31
2024-04-18T09:35:25.368Z,95320.47
2024-04-18T09:36:28.325Z,95317.31
2024-04-18T09:37:36.826Z,95315.03
2024-04-18T09:38:45.214Z,95323.22
2024-04-18T09:39:56.151Z,95320.81
2024-04-18T09:41:02.905Z,95318.09
2024-04-18T09:42:12.716Z,95314.16
2024-04-18T09:43:26.572Z,95320.38
2024-04-18T09:44:32.160Z,95321.94
2024-04-18T09:45:44.200Z,95319.53
2024-04-18T09:46:47.675Z,95322.28
2024-04-18T09:47:53.260Z,95324.56
2024-04-18T09:48:58.309Z,95322.59
2024-04-18T09:50:03.567Z,95324.16
2024-04-18T09:51:07.219Z,95325.66
2024-04-18T09:52:13.159Z,95323.28
2024-04-18T09:53:16.045Z,95318.91
2024-04-18T09:54:23.380Z,95327.81
2024-04-18T09:55:27.722Z,95323.78
2024-04-18T09:56:34.883Z,95321.06
2024-04-18T09:57:38.210Z,95316.28
2024-04-18T09:58:43.870Z,95316.63
2024-04-18T09:59:52.458Z,95321.22
2024-04-18T10:00:54.853Z,95320.34
2024-04-18T10:02:00.835Z,95317.53
2024-04-18T10:03:08.306Z,95315.91
2024-04-18T10:04:13.606Z,95311.31
2024-04-18T10:05:18.617Z,95311.66
2024-04-18T10:06:29.616Z,95320.03
2024-04-18T10:07:33.104Z,95318.91
2024-04-18T10:08:44.251Z,95324.13
2024-04-18T10:09:49.443Z,95333.19
2024-04-18T10:10:57.192Z,95332.41
2024-04-18T10:11:59.388Z,95331.63
2024-04-18T10:13:04.250Z,95328.56
2024-04-18T10:14:10.896Z,95337.63
2024-04-18T10:15:18.595Z,95333.38
2024-04-18T10:16:25.769Z,95342.22
2024-04-18T10:17:31.863Z,95350.09
2024-04-18T10:18:36.942Z,95343.84
2024-04-18T10:19:49.633Z,95350.09
2024-04-18T10:20:54.653Z,95350.94
2024-04-18T10:22:11.560Z,95343.09
2024-04-18T10:23:25.426Z,95347.00
2024-04-18T10:24:33.511Z,95344.28
2024-04-18T10:25:39.863Z,95354.44
2024-04-18T10:26:44.613Z,95344.63
2024-04-18T10:27:48.944Z,95346.19
2024-04-18T10:28:54.058Z,95342.22
2024-04-18T10:30:00.359Z,95350.78
2024-04-18T10:31:05.102Z,95351.13
2024-04-18T10:32:11.853Z,95360.84
2024-04-18T10:35:51.340Z,95356.94
2024-04-18T10:47:28.429Z,95355.31
2024-04-18T10:48:58.904Z,95354.09
2024-04-18T10:50:01.780Z,95358.38
2024-04-18T10:51:04.636Z,95357.63
2024-04-18T10:52:12.324Z,95359.16
2024-04-18T10:53:14.879Z,95359.50
2024-04-18T10:54:20.899Z,95351.28
2024-04-18T10:55:23.780Z,95355.53
2024-04-18T10:56:30.215Z,95354.38
2024-04-18T10:57:34.654Z,95346.50
2024-04-18T10:58:40.360Z,95347.28
2024-04-18T10:59:44.948Z,95349.59
2024-04-18T11:00:48.320Z,95353.44
2024-04-18T11:01:53.157Z,95354.53
2024-04-18T11:03:00.060Z,95358.03
2024-04-18T11:04:04.936Z,95358.78
2024-04-18T11:05:09.509Z,95362.38
2024-04-18T11:06:25.941Z,95362.72
2024-04-18T11:07:48.721Z,95372.56
2024-04-18T11:08:55.568Z,95371.34
2024-04-18T11:09:57.906Z,95372.97
2024-04-18T11:11:00.745Z,95376.91
2024-04-18T11:12:06.266Z,95378.44
2024-04-18T11:13:10.911Z,95376.91
2024-04-18T11:14:18.478Z,95374.19
2024-04-18T11:15:21.037Z,95376.47
2024-04-18T11:16:26.617Z,95372.97
2024-04-18T11:17:30.924Z,95372.56
2024-04-18T11:18:38.595Z,95365.13
2024-04-18T11:19:43.093Z,95365.88
2024-04-18T11:20:48.115Z,95373.66
2024-04-18T11:21:50.308Z,95358.78
2024-04-18T11:23:01.310Z,95361.09
2024-04-18T11:24:13.594Z,95361.88
2024-04-18T11:25:17.854Z,95362.22
2024-04-18T11:26:40.493Z,95361.88
2024-04-18T11:27:42.861Z,95366.50
2024-04-18T11:28:49.251Z,95369.53
2024-04-18T11:29:53.018Z,95369.53
2024-04-18T11:30:57.629Z,95371.97
2024-04-18T11:32:08.736Z,95368.72
2024-04-18T11:33:12.302Z,95374.91
2024-04-18T11:34:19.864Z,95374.03
2024-04-18T11:35:22.613Z,95373.16
2024-04-18T11:36:27.372Z,95370.88
2024-04-18T11:37:40.192Z,95370.09
2024-04-18T11:38:42.574Z,95364.63
2024-04-18T11:39:45.364Z,95366.16
2024-04-18T11:40:50.195Z,95367.00
2024-04-18T11:41:54.459Z,95377.53
2024-04-18T11:42:59.157Z,95370.09
2024-04-18T11:44:02.818Z,95371.63
2024-04-18T11:45:08.484Z,95364.63
2024-04-18T11:46:11.098Z,95367.69
2024-04-18T11:47:18.025Z,95367.28
2024-04-18T11:48:20.375Z,95369.59
2024-04-18T11:49:27.859Z,95368.38
2024-04-18T11:50:30.298Z,95367.94
2024-04-18T11:51:32.499Z,95361.63
2024-04-18T11:52:39.303Z,95368.59
2024-04-18T11:53:41.400Z,95364.28
2024-04-18T11:55:03.862Z,95370.59
2024-04-18T11:56:14.803Z,95363.59
2024-04-18T11:57:17.285Z,95366.66
2024-04-18T11:58:24.139Z,95379.13
2024-04-18T11:59:28.346Z,95376.72
2024-04-18T12:00:30.673Z,95371.25
2024-04-18T12:01:47.308Z,95372.91
2024-04-18T12:02:56.726Z,95369.75
2024-04-18T12:04:03.961Z,95374.00
2024-04-18T12:05:09.870Z,95382.53
2024-04-18T12:06:25.908Z,95378.94
2024-04-18T12:07:28.057Z,95386.81
2024-04-18T12:08:30.544Z,95376.66
2024-04-18T12:09:38.253Z,95377.94
2024-04-18T12:10:40.570Z,95375.44
2024-04-18T12:11:45.294Z,95380.84
2024-04-18T12:12:47.778Z,95382.88
2024-04-18T12:14:01.527Z,95386.22
2024-04-18T12:15:06.589Z,95390.00
2024-04-18T12:16:11.473Z,95398.09
2024-04-18T12:17:13.680Z,95405.44
2024-04-18T12:18:21.168Z,95406.34
2024-04-18T12:19:23.498Z,95396.41
2024-04-18T12:20:33.062Z,95413.44
2024-04-18T12:21:35.567Z,95413.63
2024-04-18T12:22:37.824Z,95420.81
2024-04-18T12:26:47.728Z,95424.19
2024-04-18T12:28:36.313Z,95434.88
2024-04-18T12:29:41.196Z,95428.47
2024-04-18T12:30:43.414Z,95427.28
2024-04-18T12:32:01.160Z,95441.50
2024-04-18T12:33:05.148Z,95435.28
2024-04-18T12:34:07.662Z,95440.31
2024-04-18T12:35:12.519Z,95431.78
2024-04-18T12:36:18.572Z,95445.44
2024-04-18T12:37:25.675Z,95445.34
2024-04-18T12:38:27.835Z,95447.25
2024-04-18T12:39:35.700Z,95452.22
2024-04-18T12:40:59.667Z,95447.84
2024-04-18T12:42:05.264Z,95450.59
2024-04-18T12:43:13.502Z,95451.69
2024-04-18T12:44:31.898Z,95444.34
2024-04-18T12:45:35.914Z,95453.31
2024-04-18T12:46:41.378Z,95452.56
2024-04-18T12:47:44.846Z,95451.34
2024-04-18T12:48:59.327Z,95447.44
2024-04-18T12:50:01.932Z,95453.25
2024-04-18T12:51:06.456Z,95452.81
2024-04-18T12:52:24.000Z,95445.72
2024-04-18T12:53:26.829Z,95441.81
2024-04-18T12:54:36.384Z,95438.31
2024-04-18T12:55:38.629Z,95434.38
2024-04-18T12:56:41.109Z,95437.09
2024-04-18T12:58:02.565Z,95433.19
2024-04-18T12:59:10.651Z,95427.72
2024-04-18T13:00:26.140Z,95430.03
2024-04-18T13:01:34.233Z,95424.56
2024-04-18T13:02:56.792Z,95423.03
2024-04-18T13:04:11.165Z,95419.53
2024-04-18T13:05:27.035Z,95430.03
2024-04-18T13:06:39.228Z,95430.03
2024-04-18T13:08:25.282Z,95428.84
2024-04-18T13:09:34.564Z,95429.59
2024-04-18T13:10:41.610Z,95428.84
2024-04-18T13:11:58.376Z,95422.16
2024-04-18T13:13:03.174Z,95423.72
2024-04-18T13:14:09.380Z,95426.44
2024-04-18T13:15:14.241Z,95432.22
2024-04-18T13:16:18.690Z,95425.25
2024-04-18T13:17:44.632Z,95430.28
2024-04-18T13:18:56.849Z,95431.41
2024-04-18T13:20:19.800Z,95426.69
2024-04-18T13:21:24.135Z,95432.09
2024-04-18T13:22:28.907Z,95422.69
2024-04-18T13:23:34.102Z,95428.16
2024-04-18T13:24:38.902Z,95433.19
2024-04-18T13:26:18.429Z,95431.22
2024-04-18T13:27:23.255Z,95430.03
2024-04-18T13:28:31.168Z,95426.88
2024-04-18T13:29:49.134Z,95431.56
2024-04-18T13:31:20.132Z,95433.88
2024-04-18T13:32:24.677Z,95425.66
2024-04-18T13:33:29.596Z,95431.91
2024-04-18T13:34:31.851Z,95421.69
2024-04-18T13:35:36.658Z,95425.63
2024-04-18T13:36:40.949Z,95426.81
2024-04-18T13:37:48.757Z,95425.63
2024-04-18T13:38:53.893Z,95431.09
2024-04-18T13:40:10.822Z,95418.94
2024-04-18T13:41:39.475Z,95428.69
2024-04-18T13:42:55.867Z,95413.06
2024-04-18T13:44:04.078Z,95424.75
2024-04-18T13:45:16.527Z,95416.56
2024-04-18T13:46:33.567Z,95420.09
2024-04-18T13:47:36.140Z,95420.84
2024-04-18T13:48:43.338Z,95423.91
2024-04-18T13:49:46.089Z,95419.22
2024-04-18T13:50:53.436Z,95427.00
2024-04-18T13:51:55.826Z,95432.72
2024-04-18T13:53:07.511Z,95424.56
2024-04-18T13:54:16.548Z,95423.41
2024-04-18T13:55:19.515Z,95425.94
2024-04-18T13:57:02.218Z,95423.75
2024-04-18T13:58:48.261Z,95424.09
2024-04-18T14:02:40.001Z,95415.00
2024-04-18T14:04:23.173Z,95410.31
2024-04-18T14:08:14.154Z,95412.63
2024-04-18T14:09:42.659Z,95412.63
2024-04-18T14:10:47.560Z,95411.88
2024-04-18T14:12:08.177Z,95418.09
2024-04-18T14:13:15.951Z,95414.16
2024-04-18T14:14:29.560Z,95418.84
2024-04-18T14:16:17.396Z,95411.75
2024-04-18T14:17:47.809Z,95418.78
2024-04-18T14:18:53.232Z,95421.84
2024-04-18T14:20:14.407Z,95425.69
2024-04-18T14:21:26.759Z,95427.97
2024-04-18T14:22:32.337Z,95426.03
2024-04-18T14:23:34.840Z,95424.81
2024-04-18T14:24:42.836Z,95427.16
2024-04-18T14:25:54.338Z,95429.88
2024-04-18T14:27:00.537Z,95434.91
2024-04-18T14:28:09.795Z,95433.38
2024-04-18T14:29:18.852Z,95432.97
2024-04-18T14:30:36.242Z,95437.63